createdAt,value
2022-10-29T00:00:01.567Z,98.25
2022-10-29T00:02:35.850Z,100.00
2022-10-29T00:05:03.646Z,100.00
2022-10-29T00:07:30.992Z,98.94
2022-10-29T00:09:58.390Z,96.22
2022-10-29T00:12:26.016Z,94.76
2022-10-29T00:14:53.369Z,97.29
2022-10-29T00:17:20.728Z,99.60
2022-10-29T00:19:49.077Z,96.52
2022-10-29T00:22:16.413Z,95.24
2022-10-29T00:24:43.752Z,96.88
2022-10-29T00:27:11.348Z,96.07
2022-10-29T00:29:38.773Z,95.06
2022-10-29T00:32:06.213Z,96.43
2022-10-29T00:34:34.130Z,97.13
2022-10-29T00:37:01.519Z,95.29
2022-10-29T00:39:29.602Z,91.47
2022-10-29T00:41:57.560Z,89.56
2022-10-29T00:44:27.862Z,89.79
2022-10-29T00:47:17.941Z,91.42
2022-10-29T00:49:47.870Z,91.67
2022-10-29T00:52:15.773Z,89.66
2022-10-29T00:54:44.761Z,88.58
2022-10-29T00:57:25.350Z,89.74
2022-10-29T00:59:53.111Z,91.84
2022-10-29T01:02:21.986Z,88.60
2022-10-29T01:04:50.618Z,86.44
2022-10-29T01:07:17.984Z,85.84
2022-10-29T01:09:45.695Z,86.23
2022-10-29T01:12:18.997Z,85.99
2022-10-29T01:15:19.024Z,86.79
2022-10-29T01:17:52.432Z,87.59
2022-10-29T01:20:49.917Z,89.74
2022-10-29T01:23:48.146Z,93.89
2022-10-29T01:26:40.433Z,95.78
2022-10-29T01:29:26.404Z,96.33
2022-10-29T01:32:12.671Z,97.49
2022-10-29T01:34:43.800Z,98.54
2022-10-29T01:37:47.838Z,99.55
2022-10-29T01:40:25.091Z,99.24
2022-10-29T01:43:04.468Z,100.00
2022-10-29T01:45:36.567Z,100.00
2022-10-29T01:48:30.539Z,100.00
2022-10-29T01:51:04.985Z,97.17
2022-10-29T01:53:35.188Z,95.91
2022-10-29T01:56:02.531Z,99.06
2022-10-29T01:58:30.467Z,100.00
2022-10-29T02:01:14.799Z,100.00
2022-10-29T02:03:45.114Z,100.00
2022-10-29T02:06:26.758Z,100.00
2022-10-29T02:09:17.227Z,97.69
2022-10-29T02:11:49.473Z,96.01
2022-10-29T02:14:28.097Z,95.49
2022-10-29T02:16:56.107Z,97.18
2022-10-29T02:19:23.750Z,96.47
2022-10-29T02:21:51.346Z,95.36
2022-10-29T02:24:18.689Z,93.13
2022-10-29T02:26:46.296Z,93.89
2022-10-29T02:29:13.665Z,93.54
2022-10-29T02:31:41.009Z,94.95
2022-10-29T02:34:08.777Z,94.53
2022-10-29T02:36:36.135Z,94.02
2022-10-29T02:39:03.820Z,92.81
2022-10-29T02:41:31.438Z,88.44
2022-10-29T02:43:58.866Z,90.18
2022-10-29T02:46:26.253Z,94.17
2022-10-29T02:48:53.882Z,94.67
2022-10-29T02:51:21.242Z,92.45
2022-10-29T02:53:48.566Z,95.98
2022-10-29T02:56:16.166Z,97.45
2022-10-29T02:58:43.499Z,97.20
2022-10-29T03:01:10.972Z,94.41
2022-10-29T03:03:38.671Z,95.08
2022-10-29T03:06:12.643Z,94.42
2022-10-29T03:08:40.366Z,92.34
2022-10-29T03:11:08.061Z,91.91
2022-10-29T03:13:35.415Z,95.29
2022-10-29T03:16:03.334Z,95.27
2022-10-29T03:18:30.692Z,92.56
2022-10-29T03:20:58.108Z,92.98
2022-10-29T03:23:25.725Z,92.21
2022-10-29T03:25:56.023Z,91.98
2022-10-29T03:28:25.093Z,91.18
2022-10-29T03:30:52.759Z,90.38
2022-10-29T03:33:20.106Z,90.78
2022-10-29T03:35:47.482Z,92.63
2022-10-29T03:38:15.073Z,96.31
2022-10-29T03:40:42.900Z,100.00
2022-10-29T03:43:10.269Z,100.00
2022-10-29T03:45:37.857Z,100.00
2022-10-29T03:48:05.528Z,100.00
2022-10-29T03:50:32.913Z,100.00
2022-10-29T03:53:00.491Z,100.00
2022-10-29T03:55:29.215Z,100.00
2022-10-29T03:57:56.928Z,100.00
2022-10-29T04:00:24.850Z,100.00
2022-10-29T04:02:52.554Z,100.00
2022-10-29T04:05:19.953Z,100.00
2022-10-29T04:07:47.318Z,100.00
2022-10-29T04:10:14.932Z,100.00
2022-10-29T04:12:46.551Z,100.00
2022-10-29T04:15:13.980Z,100.00
2022-10-29T04:17:41.608Z,99.21
2022-10-29T04:20:19.113Z,97.92
2022-10-29T04:26:48.083Z,94.91
2022-10-29T04:28:43.623Z,98.11
2022-10-29T04:31:12.377Z,98.31
2022-10-29T04:33:39.769Z,95.09
2022-10-29T04:36:07.890Z,91.18
2022-10-29T04:38:35.278Z,85.25
2022-10-29T04:41:03.013Z,86.81
2022-10-29T04:43:30.875Z,87.77
2022-10-29T04:45:59.369Z,87.42
2022-10-29T04:48:27.891Z,87.66
2022-10-29T04:50:55.540Z,88.12
2022-10-29T04:53:23.042Z,87.79
2022-10-29T04:55:50.838Z,89.66
2022-10-29T04:58:19.737Z,88.37
2022-10-29T05:00:47.219Z,91.29
2022-10-29T05:03:14.675Z,93.69
2022-10-29T05:05:42.614Z,97.17
2022-10-29T05:08:11.089Z,99.25
2022-10-29T05:10:39.672Z,99.36
2022-10-29T05:13:11.838Z,99.74
2022-10-29T05:15:39.903Z,96.63
2022-10-29T05:18:09.043Z,99.00
2022-10-29T05:20:36.478Z,100.00
2022-10-29T05:23:06.083Z,100.00
2022-10-29T05:25:36.609Z,100.00
2022-10-29T05:28:09.735Z,100.00
2022-10-29T05:30:37.800Z,100.00
2022-10-29T05:33:09.296Z,100.00
2022-10-29T05:35:36.906Z,100.00
2022-10-29T05:38:05.072Z,100.00
2022-10-29T05:40:32.966Z,100.00
2022-10-29T05:43:01.060Z,100.00
2022-10-29T05:45:28.712Z,100.00
2022-10-29T05:48:00.417Z,100.00
2022-10-29T05:50:29.003Z,100.00
2022-10-29T05:53:10.475Z,100.00
2022-10-29T05:55:38.300Z,100.00
2022-10-29T05:58:07.948Z,100.00
2022-10-29T06:00:37.436Z,100.00
2022-10-29T06:03:14.997Z,100.00
2022-10-29T06:05:42.639Z,100.00
2022-10-29T06:08:10.590Z,100.00
2022-10-29T06:10:38.052Z,98.48
2022-10-29T06:13:31.681Z,95.63
2022-10-29T06:16:00.045Z,94.02
2022-10-29T06:18:27.728Z,98.61
2022-10-29T06:20:57.351Z,99.24
2022-10-29T06:23:25.311Z,97.13
2022-10-29T06:25:53.132Z,94.90
2022-10-29T06:28:20.563Z,89.92
2022-10-29T06:30:49.967Z,91.92
2022-10-29T06:33:20.769Z,95.86
2022-10-29T06:35:48.836Z,97.26
2022-10-29T06:38:16.225Z,95.44
2022-10-29T06:40:43.746Z,98.68
2022-10-29T06:43:12.383Z,97.46
2022-10-29T06:45:39.968Z,97.80
2022-10-29T06:48:07.521Z,97.93
2022-10-29T06:50:35.166Z,98.63
2022-10-29T06:53:04.750Z,97.88
2022-10-29T06:55:33.835Z,100.00
2022-10-29T06:58:03.293Z,100.00
2022-10-29T07:00:31.631Z,100.00
2022-10-29T07:02:59.624Z,100.00
2022-10-29T07:05:27.887Z,100.00
2022-10-29T07:07:57.143Z,100.00
2022-10-29T07:10:26.275Z,100.00
2022-10-29T07:12:53.926Z,100.00
2022-10-29T07:15:25.651Z,100.00
2022-10-29T07:18:06.108Z,100.00
2022-10-29T07:20:36.312Z,100.00
2022-10-29T07:23:04.417Z,100.00
2022-10-29T07:25:32.501Z,100.00
2022-10-29T07:28:12.766Z,100.00
2022-10-29T07:30:40.735Z,99.31
2022-10-29T07:33:08.712Z,94.52
2022-10-29T07:35:36.763Z,90.87
2022-10-29T07:38:10.398Z,88.91
2022-10-29T07:40:39.841Z,84.88
2022-10-29T07:43:07.629Z,85.17
2022-10-29T07:45:34.999Z,86.16
2022-10-29T07:48:05.071Z,87.60
2022-10-29T07:50:32.763Z,88.88
2022-10-29T07:53:01.144Z,88.36
2022-10-29T07:58:01.464Z,94.41
2022-10-29T08:00:29.927Z,97.13
2022-10-29T08:02:57.931Z,96.87
2022-10-29T08:05:26.340Z,90.63
2022-10-29T08:07:55.522Z,90.05
2022-10-29T08:10:24.450Z,89.83
2022-10-29T08:12:56.991Z,98.22
2022-10-29T08:15:26.036Z,97.63
2022-10-29T08:17:53.858Z,95.39
2022-10-29T08:20:21.927Z,95.34
2022-10-29T08:22:49.587Z,96.46
2022-10-29T08:25:18.047Z,93.66
2022-10-29T08:27:45.507Z,93.00
2022-10-29T08:30:14.552Z,95.84
2022-10-29T08:32:46.653Z,95.28
2022-10-29T08:35:14.625Z,89.84
2022-10-29T08:37:45.451Z,88.80
2022-10-29T08:40:51.629Z,88.46
2022-10-29T08:43:54.404Z,87.13
2022-10-29T08:46:35.879Z,81.80
2022-10-29T08:49:05.220Z,88.44
2022-10-29T08:51:39.445Z,92.28
2022-10-29T08:54:29.960Z,93.45
2022-10-29T08:56:59.626Z,94.12
2022-10-29T08:59:29.832Z,98.59
2022-10-29T09:01:57.340Z,100.00
2022-10-29T09:04:35.306Z,100.00
2022-10-29T09:07:45.675Z,100.00
2022-10-29T09:10:27.822Z,100.00
2022-10-29T09:13:28.316Z,100.00
2022-10-29T09:16:29.579Z,99.77
2022-10-29T09:19:13.380Z,100.00
2022-10-29T09:21:59.882Z,100.00
2022-10-29T09:24:30.737Z,95.95
2022-10-29T09:27:18.972Z,93.48
2022-10-29T09:30:01.869Z,96.62
2022-10-29T09:32:43.332Z,98.49
2022-10-29T09:35:17.156Z,99.36
2022-10-29T09:37:55.073Z,96.60
2022-10-29T09:40:31.768Z,95.59
2022-10-29T09:43:00.694Z,95.33
2022-10-29T09:46:00.622Z,92.95
2022-10-29T09:48:36.974Z,94.92
2022-10-29T09:51:46.234Z,97.45
2022-10-29T09:54:13.685Z,99.39
2022-10-29T09:56:45.673Z,99.06
2022-10-29T09:59:41.125Z,99.38
2022-10-29T10:02:25.853Z,97.51
2022-10-29T10:04:57.050Z,98.85
2022-10-29T10:07:24.469Z,97.37
2022-10-29T10:10:01.794Z,95.39
2022-10-29T10:12:44.939Z,95.41
2022-10-29T10:15:24.075Z,93.12
2022-10-29T10:18:10.302Z,92.35
2022-10-29T10:20:40.552Z,94.26
2022-10-29T10:23:29.319Z,94.70
2022-10-29T10:26:02.043Z,93.75
2022-10-29T10:28:35.724Z,91.60
2022-10-29T10:31:12.068Z,92.42
2022-10-29T10:33:51.530Z,93.16
2022-10-29T10:36:21.780Z,92.61
2022-10-29T10:38:51.342Z,93.57
2022-10-29T10:41:25.271Z,93.42
2022-10-29T10:43:55.783Z,92.69
2022-10-29T10:46:25.461Z,94.82
2022-10-29T10:48:59.770Z,94.39
2022-10-29T10:51:32.209Z,94.44
2022-10-29T10:54:01.580Z,94.23
2022-10-29T10:56:29.686Z,95.04
2022-10-29T10:59:10.093Z,94.92
2022-10-29T11:01:41.831Z,94.06
2022-10-29T11:04:17.789Z,92.72
2022-10-29T11:06:48.770Z,94.57
2022-10-29T11:09:25.342Z,90.73
2022-10-29T11:12:06.713Z,90.86
2022-10-29T11:14:36.810Z,92.05
2022-10-29T11:17:07.368Z,89.19
2022-10-29T11:19:45.638Z,91.38
2022-10-29T11:22:19.037Z,91.59
2022-10-29T11:25:21.628Z,91.16
2022-10-29T11:27:55.508Z,88.30
2022-10-29T11:30:23.253Z,90.66
2022-10-29T11:32:59.074Z,93.89
2022-10-29T11:35:43.943Z,95.01
2022-10-29T11:38:22.703Z,92.39
2022-10-29T11:41:27.792Z,90.12
2022-10-29T11:43:55.417Z,90.71
2022-10-29T11:46:59.565Z,90.20
2022-10-29T11:49:43.619Z,91.56
2022-10-29T11:52:13.950Z,90.15
2022-10-29T11:55:06.767Z,91.29
2022-10-29T11:57:59.010Z,92.28
2022-10-29T12:00:31.941Z,93.68
2022-10-29T12:03:11.597Z,92.20
2022-10-29T12:05:50.686Z,91.13
2022-10-29T12:08:31.476Z,90.46
2022-10-29T12:10:58.744Z,88.26
2022-10-29T12:14:07.626Z,83.16
2022-10-29T12:16:47.208Z,82.61
2022-10-29T12:19:14.704Z,80.95
2022-10-29T12:21:41.977Z,80.91
2022-10-29T12:24:23.843Z,79.25
2022-10-29T12:27:18.959Z,79.53
2022-10-29T12:29:58.965Z,83.97
2022-10-29T12:32:33.929Z,85.64
2022-10-29T12:35:02.930Z,89.15
2022-10-29T12:37:49.697Z,91.41
2022-10-29T12:40:21.286Z,90.04
2022-10-29T12:42:49.874Z,90.96
2022-10-29T12:45:43.454Z,88.14
2022-10-29T12:48:34.742Z,90.38
2022-10-29T12:51:27.038Z,89.67
2022-10-29T12:54:11.164Z,86.99
2022-10-29T12:56:38.801Z,85.94
2022-10-29T12:59:36.575Z,84.71
2022-10-29T13:02:24.526Z,87.10
2022-10-29T13:05:27.646Z,89.25
2022-10-29T13:08:03.767Z,89.76
2022-10-29T13:10:34.091Z,87.48
2022-10-29T13:13:07.149Z,89.20
2022-10-29T13:15:42.170Z,90.87
2022-10-29T13:18:12.426Z,90.66
2022-10-29T13:20:42.689Z,88.96
2022-10-29T13:23:22.275Z,87.81
2022-10-29T13:26:08.634Z,87.38
2022-10-29T13:28:35.867Z,84.57
2022-10-29T13:31:06.447Z,85.38
2022-10-29T13:33:33.663Z,87.19
2022-10-29T13:36:05.415Z,87.45
2022-10-29T13:39:04.451Z,90.36
2022-10-29T13:42:03.362Z,90.32
2022-10-29T13:44:31.831Z,89.45
2022-10-29T13:47:24.445Z,87.06
2022-10-29T13:49:52.152Z,88.26
2022-10-29T13:52:21.278Z,89.70
2022-10-29T13:55:01.330Z,89.98
2022-10-29T13:57:38.788Z,90.12
2022-10-29T14:00:12.100Z,90.22
2022-10-29T14:02:42.749Z,91.59
2022-10-29T14:05:17.677Z,90.76
2022-10-29T14:08:00.705Z,92.47
2022-10-29T14:10:34.176Z,91.98
2022-10-29T14:13:13.952Z,92.92
2022-10-29T14:16:03.119Z,94.94
2022-10-29T14:18:37.456Z,93.57
2022-10-29T14:21:07.499Z,92.48
2022-10-29T14:23:35.174Z,92.99
2022-10-29T14:26:03.988Z,89.64
2022-10-29T14:28:32.836Z,91.34
2022-10-29T14:31:06.322Z,91.20
2022-10-29T14:33:37.595Z,93.53
2022-10-29T14:36:05.256Z,93.57
2022-10-29T14:38:38.047Z,93.54
2022-10-29T14:41:06.003Z,93.79
2022-10-29T14:43:35.054Z,90.35
2022-10-29T14:46:25.659Z,88.08
2022-10-29T14:48:58.302Z,85.66
2022-10-29T14:51:26.281Z,82.64
2022-10-29T14:54:00.513Z,80.53
2022-10-29T14:56:37.172Z,79.33
2022-10-29T14:59:18.973Z,78.99
2022-10-29T15:01:53.996Z,80.35
2022-10-29T15:04:30.763Z,79.61
2022-10-29T15:07:35.439Z,79.74
2022-10-29T15:10:16.858Z,83.45
2022-10-29T15:12:44.678Z,78.98
2022-10-29T15:15:19.010Z,79.50
2022-10-29T15:17:56.078Z,84.46
2022-10-29T15:20:39.091Z,83.06
2022-10-29T15:23:15.785Z,86.05
2022-10-29T15:25:44.880Z,84.97
2022-10-29T15:28:18.146Z,83.15
2022-10-29T15:30:46.753Z,82.20
2022-10-29T15:33:18.525Z,83.65
2022-10-29T15:35:51.859Z,82.06
2022-10-29T15:38:52.216Z,82.15
2022-10-29T15:41:20.473Z,80.70
2022-10-29T15:43:55.946Z,81.36
2022-10-29T15:46:25.709Z,82.07
2022-10-29T15:48:54.226Z,81.89
2022-10-29T15:51:26.315Z,82.05
2022-10-29T15:53:58.734Z,77.61
2022-10-29T15:56:26.449Z,78.55
2022-10-29T15:58:57.007Z,79.03
2022-10-29T16:01:26.927Z,77.82
2022-10-29T16:03:54.844Z,75.23
2022-10-29T16:06:22.597Z,73.95
2022-10-29T16:08:51.947Z,73.46
2022-10-29T16:11:20.888Z,73.98
2022-10-29T16:13:54.526Z,76.60
2022-10-29T16:16:25.150Z,76.49
2022-10-29T16:18:53.637Z,75.95
2022-10-29T16:21:23.253Z,76.80
2022-10-29T16:23:52.100Z,77.66
2022-10-29T16:26:24.517Z,78.52
2022-10-29T16:28:53.546Z,79.28
2022-10-29T16:31:32.134Z,78.75
2022-10-29T16:34:03.661Z,76.60
2022-10-29T16:36:31.018Z,83.08
2022-10-29T16:38:58.831Z,84.78
2022-10-29T16:41:26.861Z,82.27
2022-10-29T16:43:54.729Z,80.10
2022-10-29T16:46:22.640Z,78.58
2022-10-29T16:48:50.950Z,79.01
2022-10-29T16:51:19.092Z,80.87
2022-10-29T16:53:47.043Z,80.86
2022-10-29T16:56:14.740Z,80.97
2022-10-29T16:58:42.418Z,83.21
2022-10-29T17:01:10.949Z,82.85
2022-10-29T17:03:39.806Z,80.53
2022-10-29T17:06:09.749Z,84.72
2022-10-29T17:08:38.228Z,86.40
2022-10-29T17:11:10.068Z,85.86
2022-10-29T17:13:38.493Z,83.30
2022-10-29T17:16:07.991Z,84.94
2022-10-29T17:18:35.694Z,83.56
2022-10-29T17:21:04.025Z,85.31
2022-10-29T17:23:32.721Z,89.80
2022-10-29T17:26:01.000Z,92.95
2022-10-29T17:28:29.129Z,92.81
2022-10-29T17:30:57.531Z,91.85
2022-10-29T17:33:26.295Z,91.98
2022-10-29T17:36:04.968Z,95.31
2022-10-29T17:38:33.477Z,94.67
2022-10-29T17:41:01.218Z,93.70
2022-10-29T17:43:28.907Z,94.06
2022-10-29T17:45:56.827Z,93.21
2022-10-29T17:48:25.169Z,94.79
2022-10-29T17:51:01.444Z,93.08
2022-10-29T17:53:31.472Z,93.28
2022-10-29T17:55:59.767Z,92.58
2022-10-29T17:58:27.809Z,97.20
2022-10-29T18:00:56.160Z,94.69
2022-10-29T18:03:27.069Z,94.79
2022-10-29T18:06:01.054Z,94.25
2022-10-29T18:08:29.661Z,95.40
2022-10-29T18:11:11.300Z,97.09
2022-10-29T18:13:41.756Z,95.61
2022-10-29T18:16:13.086Z,94.87
2022-10-29T18:18:54.755Z,94.82
2022-10-29T18:21:33.144Z,95.28
2022-10-29T18:24:01.669Z,94.56
2022-10-29T18:26:32.963Z,94.32
2022-10-29T18:29:03.817Z,93.58
2022-10-29T18:31:32.225Z,94.36
2022-10-29T18:34:02.332Z,93.88
2022-10-29T18:36:30.511Z,92.98
2022-10-29T18:38:59.133Z,92.47
2022-10-29T18:41:27.006Z,92.59
2022-10-29T18:43:55.990Z,96.16
2022-10-29T18:46:23.367Z,92.74
2022-10-29T18:48:51.812Z,94.97
2022-10-29T18:51:28.803Z,93.62
2022-10-29T18:54:00.107Z,91.08
2022-10-29T18:56:29.433Z,95.36
2022-10-29T18:58:58.254Z,94.52
2022-10-29T19:01:30.697Z,95.23
2022-10-29T19:04:01.301Z,92.54
2022-10-29T19:06:31.605Z,93.45
2022-10-29T19:09:06.484Z,91.63
2022-10-29T19:11:34.825Z,89.43
2022-10-29T19:14:05.761Z,83.62
2022-10-29T19:16:33.974Z,84.38
2022-10-29T19:21:38.369Z,90.53
2022-10-29T19:24:07.523Z,86.18
2022-10-29T19:26:35.467Z,90.19
2022-10-29T19:29:04.184Z,89.73
2022-10-29T19:31:33.237Z,85.02
2022-10-29T19:34:02.536Z,88.82
2022-10-29T19:36:30.746Z,88.00
2022-10-29T19:39:00.782Z,86.04
2022-10-29T19:41:29.706Z,81.58
2022-10-29T19:44:01.594Z,84.53
2022-10-29T19:46:30.605Z,86.96
2022-10-29T19:48:58.583Z,89.31
2022-10-29T19:51:26.806Z,88.54
2022-10-29T19:53:57.647Z,92.04
2022-10-29T19:56:25.705Z,88.31
2022-10-29T19:58:53.323Z,89.33
2022-10-29T20:01:21.987Z,90.04
2022-10-29T20:03:50.002Z,90.81
2022-10-29T20:06:18.420Z,86.73
2022-10-29T20:08:46.304Z,89.67
2022-10-29T20:11:14.040Z,92.06
2022-10-29T20:13:42.170Z,94.41
2022-10-29T20:16:12.765Z,95.73
2022-10-29T20:18:41.055Z,94.91
2022-10-29T20:21:08.869Z,94.55
2022-10-29T20:23:36.475Z,96.91
2022-10-29T20:26:04.413Z,96.66
2022-10-29T20:28:32.835Z,96.97
2022-10-29T20:31:19.370Z,99.88
2022-10-29T20:33:57.108Z,98.07
2022-10-29T20:36:28.844Z,97.68
2022-10-29T20:38:56.942Z,94.05
2022-10-29T20:41:25.232Z,90.90
2022-10-29T20:43:59.211Z,91.75
2022-10-29T20:46:27.564Z,87.04
2022-10-29T20:48:55.317Z,84.02
2022-10-29T20:51:24.458Z,81.46
2022-10-29T20:53:53.050Z,80.27
2022-10-29T20:56:23.357Z,80.59
2022-10-29T20:58:50.752Z,81.24
2022-10-29T21:01:20.393Z,86.74
2022-10-29T21:03:50.277Z,84.88
2022-10-29T21:06:19.211Z,83.04
2022-10-29T21:08:47.762Z,84.17
2022-10-29T21:11:16.955Z,88.59
2022-10-29T21:13:45.368Z,89.45
2022-10-29T21:16:22.344Z,90.86
2022-10-29T21:18:53.060Z,89.71
2022-10-29T21:21:21.371Z,91.21
2022-10-29T21:23:48.975Z,87.14
2022-10-29T21:26:22.299Z,88.17
2022-10-29T21:28:51.203Z,91.79
2022-10-29T21:31:20.668Z,93.83
2022-10-29T21:33:51.960Z,94.34
2022-10-29T21:36:20.698Z,95.61
2022-10-29T21:38:48.775Z,96.86
2022-10-29T21:41:16.726Z,94.29
2022-10-29T21:43:44.614Z,94.15
2022-10-29T21:46:12.229Z,88.90
2022-10-29T21:48:39.884Z,85.60
2022-10-29T21:51:10.947Z,83.18
2022-10-29T21:53:39.272Z,90.89
2022-10-29T21:56:09.747Z,85.84
2022-10-29T21:58:37.592Z,95.26
2022-10-29T22:01:06.404Z,91.04
2022-10-29T22:03:35.817Z,87.42
2022-10-29T22:06:09.470Z,93.15
2022-10-29T22:08:38.303Z,95.62
2022-10-29T22:11:06.147Z,96.75
2022-10-29T22:13:34.415Z,98.50
2022-10-29T22:16:04.081Z,97.43
2022-10-29T22:18:32.026Z,98.12
2022-10-29T22:21:11.771Z,100.00
2022-10-29T22:23:58.694Z,100.00
2022-10-29T22:26:28.039Z,97.53
2022-10-29T22:28:56.015Z,100.00
2022-10-29T22:31:24.470Z,99.72
2022-10-29T22:33:52.688Z,98.25
2022-10-29T22:36:23.018Z,97.31
2022-10-29T22:38:54.792Z,97.92
2022-10-29T22:41:23.043Z,98.57
2022-10-29T22:43:50.458Z,98.17
2022-10-29T22:46:20.135Z,98.18
2022-10-29T22:48:48.168Z,100.00
2022-10-29T22:51:18.325Z,99.64
2022-10-29T22:53:45.953Z,100.00
2022-10-29T22:56:22.137Z,100.00
2022-10-29T22:58:49.658Z,100.00
2022-10-29T23:01:25.804Z,96.65
2022-10-29T23:03:53.999Z,98.96
2022-10-29T23:06:23.661Z,97.74
2022-10-29T23:08:53.083Z,96.86
2022-10-29T23:11:25.939Z,95.21
2022-10-29T23:13:55.948Z,95.02
2022-10-29T23:16:24.430Z,96.33
2022-10-29T23:18:55.030Z,97.29
2022-10-29T23:21:23.018Z,96.08
2022-10-29T23:23:50.617Z,93.60
2022-10-29T23:26:19.203Z,96.38
2022-10-29T23:28:47.836Z,94.42
2022-10-29T23:31:17.599Z,97.65
2022-10-29T23:33:50.469Z,100.00
2022-10-29T23:36:19.636Z,100.00
2022-10-29T23:38:47.063Z,98.22
2022-10-29T23:41:14.725Z,100.00
2022-10-29T23:43:42.454Z,100.00
2022-10-29T23:46:10.224Z,99.61
2022-10-29T23:48:37.604Z,100.00
2022-10-29T23:51:05.525Z,98.79
2022-10-29T23:53:33.338Z,98.44
2022-10-29T23:56:01.002Z,98.66
2022-10-29T23:58:29.010Z,96.99
